createdAt,value
2022-10-31T00:00:15.981Z,7.53
2022-10-31T00:02:42.631Z,5.50
2022-10-31T00:05:09.521Z,6.93
2022-10-31T00:07:35.999Z,5.72
2022-10-31T00:10:02.542Z,7.28
2022-10-31T00:12:29.006Z,5.45
2022-10-31T00:14:55.468Z,4.72
2022-10-31T00:17:22.000Z,5.70
2022-10-31T00:19:48.536Z,5.78
2022-10-31T00:22:15.064Z,5.50
2022-10-31T00:24:41.508Z,4.50
2022-10-31T00:27:07.986Z,7.07
2022-10-31T00:29:34.474Z,6.85
2022-10-31T00:32:00.972Z,8.05
2022-10-31T00:34:27.954Z,5.97
2022-10-31T00:36:54.596Z,7.38
2022-10-31T00:39:21.074Z,7.45
2022-10-31T00:41:47.636Z,9.27
2022-10-31T00:44:14.113Z,5.05
2022-10-31T00:46:40.581Z,6.32
2022-10-31T00:49:07.024Z,5.85
2022-10-31T00:51:33.627Z,5.05
2022-10-31T00:54:00.403Z,6.50
2022-10-31T00:56:27.055Z,9.13
2022-10-31T00:58:54.236Z,8.02
2022-10-31T01:01:21.232Z,6.50
2022-10-31T01:03:47.772Z,6.82
2022-10-31T01:06:14.967Z,6.47
2022-10-31T01:08:41.608Z,5.07
2022-10-31T01:11:13.011Z,5.85
2022-10-31T01:13:41.092Z,6.82
2022-10-31T01:16:09.121Z,6.53
2022-10-31T01:18:35.972Z,5.65
2022-10-31T01:21:12.983Z,9.02
2022-10-31T01:23:39.735Z,8.32
2022-10-31T01:26:14.337Z,6.38
2022-10-31T01:28:47.357Z,6.70
2022-10-31T01:31:14.713Z,8.63
2022-10-31T01:33:41.504Z,5.63
2022-10-31T01:36:14.485Z,8.88
2022-10-31T01:38:41.020Z,5.72
2022-10-31T01:41:07.774Z,7.63
2022-10-31T01:44:15.879Z,6.32
2022-10-31T01:46:45.416Z,4.78
2022-10-31T01:49:16.264Z,6.05
2022-10-31T01:51:48.820Z,8.55
2022-10-31T01:54:17.285Z,4.85
2022-10-31T01:56:46.976Z,5.78
2022-10-31T01:59:16.439Z,7.00
2022-10-31T02:01:43.565Z,6.13
2022-10-31T02:04:10.253Z,4.80
2022-10-31T02:06:45.813Z,6.90
2022-10-31T02:09:13.419Z,6.88
2022-10-31T02:11:40.135Z,7.07
2022-10-31T02:14:06.639Z,9.07
2022-10-31T02:16:33.188Z,7.60
2022-10-31T02:18:59.872Z,6.00
2022-10-31T02:21:53.738Z,5.90
2022-10-31T02:24:44.279Z,6.95
2022-10-31T02:27:32.119Z,7.90
2022-10-31T02:30:05.428Z,8.88
2022-10-31T02:33:02.138Z,6.18
2022-10-31T02:36:04.536Z,5.97
2022-10-31T02:38:50.319Z,6.53
2022-10-31T02:41:38.771Z,7.00
2022-10-31T02:44:37.256Z,5.47
2022-10-31T02:47:10.487Z,5.78
2022-10-31T02:49:44.918Z,9.07
2022-10-31T02:52:18.608Z,6.82
2022-10-31T02:54:46.288Z,8.63
2022-10-31T02:57:13.977Z,7.13
2022-10-31T02:59:45.941Z,7.90
2022-10-31T03:02:31.227Z,6.15
2022-10-31T03:05:28.668Z,5.60
2022-10-31T03:08:01.054Z,5.38
2022-10-31T03:10:46.453Z,5.18
2022-10-31T03:13:45.807Z,4.82
2022-10-31T03:16:24.388Z,5.18
2022-10-31T03:18:59.168Z,5.85
2022-10-31T03:21:31.616Z,8.45
2022-10-31T03:24:00.256Z,7.38
2022-10-31T03:26:26.760Z,6.53
2022-10-31T03:28:58.699Z,7.38
2022-10-31T03:31:28.796Z,6.68
2022-10-31T03:33:57.253Z,5.95
2022-10-31T03:36:24.088Z,8.05
2022-10-31T03:38:52.342Z,5.47
2022-10-31T03:41:22.080Z,6.90
2022-10-31T03:44:15.979Z,6.43
2022-10-31T03:46:44.008Z,6.90
2022-10-31T03:49:10.940Z,8.10
2022-10-31T03:51:49.911Z,7.75
2022-10-31T03:54:27.848Z,5.25
2022-10-31T03:57:12.857Z,5.43
2022-10-31T03:59:46.051Z,8.02
2022-10-31T04:02:19.294Z,7.47
2022-10-31T04:04:47.700Z,6.35
2022-10-31T04:09:44.361Z,4.63
2022-10-31T04:12:15.908Z,7.15
2022-10-31T04:15:10.724Z,8.50
2022-10-31T04:17:41.779Z,6.45
2022-10-31T04:20:09.349Z,8.23
2022-10-31T04:22:35.852Z,6.80
2022-10-31T04:25:02.409Z,6.78
2022-10-31T04:27:28.889Z,6.35
2022-10-31T04:29:55.418Z,5.55
2022-10-31T04:32:21.948Z,4.55
2022-10-31T04:34:48.436Z,7.45
2022-10-31T04:37:14.951Z,3.95
2022-10-31T04:39:41.468Z,7.28
2022-10-31T04:42:33.947Z,7.90
2022-10-31T04:45:03.526Z,5.25
2022-10-31T04:47:34.248Z,6.40
2022-10-31T04:50:02.300Z,5.18
2022-10-31T04:52:29.187Z,6.38
2022-10-31T04:54:55.919Z,5.95
2022-10-31T04:57:48.382Z,6.18
2022-10-31T05:02:51.242Z,6.20
2022-10-31T05:05:19.214Z,5.72
2022-10-31T05:07:47.061Z,5.63
2022-10-31T05:10:19.628Z,8.57
2022-10-31T05:12:48.319Z,6.07
2022-10-31T05:15:47.250Z,5.47
2022-10-31T05:18:33.723Z,6.55
2022-10-31T05:21:32.166Z,6.55
2022-10-31T05:24:01.738Z,6.80
2022-10-31T05:26:28.964Z,8.07
2022-10-31T05:28:55.967Z,7.15
2022-10-31T05:31:23.201Z,5.57
2022-10-31T05:33:50.728Z,3.85
2022-10-31T05:36:35.882Z,4.97
2022-10-31T05:39:31.494Z,5.80
2022-10-31T05:42:45.022Z,7.80
2022-10-31T05:45:16.169Z,9.90
2022-10-31T05:47:59.885Z,7.35
2022-10-31T05:50:45.608Z,10.10
2022-10-31T05:53:12.139Z,9.02
2022-10-31T05:55:41.626Z,10.02
2022-10-31T05:58:19.794Z,6.88
2022-10-31T06:00:53.945Z,11.45
2022-10-31T06:03:20.688Z,6.85
2022-10-31T06:05:55.372Z,10.27
2022-10-31T06:08:25.624Z,8.02
2022-10-31T06:10:54.704Z,8.80
2022-10-31T06:13:33.582Z,8.15
2022-10-31T06:16:08.827Z,8.77
2022-10-31T06:18:37.607Z,11.65
2022-10-31T06:21:04.149Z,11.48
2022-10-31T06:23:30.660Z,8.73
2022-10-31T06:26:17.152Z,14.15
2022-10-31T06:28:43.684Z,9.90
2022-10-31T06:31:18.515Z,10.98
2022-10-31T06:33:45.571Z,9.23
2022-10-31T06:36:12.325Z,16.63
2022-10-31T06:38:38.963Z,8.68
2022-10-31T06:41:08.250Z,6.88
2022-10-31T06:43:41.726Z,7.70
2022-10-31T06:46:44.438Z,8.85
2022-10-31T06:49:31.244Z,9.88
2022-10-31T06:52:01.778Z,10.65
2022-10-31T06:54:29.044Z,10.10
2022-10-31T06:56:55.868Z,11.20
2022-10-31T06:59:22.710Z,5.47
2022-10-31T07:02:10.303Z,7.63
2022-10-31T07:04:37.636Z,9.55
2022-10-31T07:07:04.517Z,13.93
2022-10-31T07:09:35.585Z,9.93
2022-10-31T07:14:32.649Z,12.48
2022-10-31T07:16:59.292Z,12.60
2022-10-31T07:19:32.870Z,11.15
2022-10-31T07:21:59.409Z,13.18
2022-10-31T07:24:28.555Z,9.45
2022-10-31T07:29:29.552Z,12.35
2022-10-31T07:31:56.122Z,9.35
2022-10-31T07:34:26.723Z,11.65
2022-10-31T07:36:55.915Z,12.82
2022-10-31T07:39:22.509Z,13.02
2022-10-31T07:41:49.600Z,13.25
2022-10-31T07:44:18.939Z,15.00
2022-10-31T07:47:08.164Z,11.90
2022-10-31T07:49:52.960Z,13.13
2022-10-31T07:52:45.204Z,8.93
2022-10-31T07:55:32.329Z,12.07
2022-10-31T07:58:04.448Z,12.10
2022-10-31T08:00:32.390Z,13.52
2022-10-31T08:02:59.869Z,11.05
2022-10-31T08:05:52.680Z,11.68
2022-10-31T08:08:36.061Z,13.90
2022-10-31T08:11:05.288Z,11.27
2022-10-31T08:13:32.340Z,17.38
2022-10-31T08:16:04.397Z,16.52
2022-10-31T08:18:33.580Z,13.85
2022-10-31T08:21:00.171Z,13.77
2022-10-31T08:23:26.688Z,15.75
2022-10-31T08:25:55.183Z,13.02
2022-10-31T08:28:22.944Z,14.13
2022-10-31T08:30:51.068Z,10.32
2022-10-31T08:33:36.351Z,15.70
2022-10-31T08:36:22.095Z,14.07
2022-10-31T08:38:59.122Z,15.55
2022-10-31T08:41:29.096Z,12.52
2022-10-31T08:43:55.722Z,17.58
2022-10-31T08:46:22.485Z,14.70
2022-10-31T08:48:49.550Z,14.93
2022-10-31T08:53:43.977Z,12.38
2022-10-31T08:56:28.935Z,13.57
2022-10-31T08:58:55.578Z,11.52
2022-10-31T09:01:32.192Z,10.80
2022-10-31T09:03:58.833Z,13.77
2022-10-31T09:06:26.303Z,12.18
2022-10-31T09:08:54.001Z,14.82
2022-10-31T09:11:25.255Z,10.63
2022-10-31T09:14:10.383Z,14.68
2022-10-31T09:16:39.533Z,13.43
2022-10-31T09:19:11.616Z,15.10
2022-10-31T09:21:38.412Z,15.15
2022-10-31T09:24:05.358Z,12.32
2022-10-31T09:26:32.129Z,10.18
2022-10-31T09:29:10.620Z,12.80
2022-10-31T09:31:42.357Z,9.85
2022-10-31T09:34:26.637Z,15.93
2022-10-31T09:37:07.307Z,14.00
2022-10-31T09:39:35.535Z,10.95
2022-10-31T09:42:38.544Z,15.27
2022-10-31T09:45:34.957Z,11.23
2022-10-31T09:48:22.542Z,8.30
2022-10-31T09:51:18.811Z,12.20
2022-10-31T09:54:21.440Z,13.52
2022-10-31T09:56:48.067Z,11.93
2022-10-31T09:59:22.805Z,13.70
2022-10-31T10:01:57.043Z,14.82
2022-10-31T10:04:36.991Z,18.08
2022-10-31T10:07:31.244Z,15.20
2022-10-31T10:10:27.709Z,12.23
2022-10-31T10:13:17.836Z,14.95
2022-10-31T10:15:50.100Z,13.05
2022-10-31T10:18:41.293Z,17.63
2022-10-31T10:21:30.109Z,14.77
2022-10-31T10:24:21.803Z,13.18
2022-10-31T10:26:56.466Z,11.80
2022-10-31T10:29:34.310Z,10.15
2022-10-31T10:32:03.207Z,16.52
2022-10-31T10:34:37.222Z,15.02
2022-10-31T10:37:09.023Z,16.02
2022-10-31T10:39:45.474Z,19.25
2022-10-31T10:42:32.608Z,14.05
2022-10-31T10:45:17.948Z,14.40
2022-10-31T10:47:47.779Z,12.95
2022-10-31T10:50:22.925Z,16.17
2022-10-31T10:53:00.434Z,14.52
2022-10-31T10:55:51.715Z,17.23
2022-10-31T10:58:18.183Z,15.52
2022-10-31T11:00:48.797Z,19.55
2022-10-31T11:03:16.437Z,12.63
2022-10-31T11:05:59.367Z,11.48
2022-10-31T11:08:36.706Z,13.13
2022-10-31T11:11:15.248Z,12.00
2022-10-31T11:13:42.614Z,13.60
2022-10-31T11:16:12.576Z,12.90
2022-10-31T11:18:42.677Z,18.63
2022-10-31T11:21:28.852Z,12.40
2022-10-31T11:24:14.484Z,17.23
2022-10-31T11:26:43.201Z,11.32
2022-10-31T11:29:37.609Z,18.25
2022-10-31T11:32:04.244Z,14.90
2022-10-31T11:34:43.328Z,17.45
2022-10-31T11:37:14.508Z,13.13
2022-10-31T11:39:43.374Z,9.90
2022-10-31T11:42:10.161Z,8.60
2022-10-31T11:44:36.812Z,10.45
2022-10-31T11:47:05.228Z,11.45
2022-10-31T11:49:40.965Z,8.88
2022-10-31T11:52:09.787Z,10.15
2022-10-31T11:54:46.132Z,10.10
2022-10-31T11:57:52.501Z,11.93
2022-10-31T12:00:22.200Z,9.00
2022-10-31T12:02:48.852Z,16.60
2022-10-31T12:05:24.684Z,8.55
2022-10-31T12:07:51.335Z,11.00
2022-10-31T12:10:22.824Z,7.90
2022-10-31T12:13:24.766Z,7.45
2022-10-31T12:15:55.347Z,9.48
2022-10-31T12:18:42.467Z,11.68
2022-10-31T12:21:17.100Z,8.23
2022-10-31T12:23:56.836Z,10.20
2022-10-31T12:26:41.932Z,7.18
2022-10-31T12:29:14.905Z,7.05
2022-10-31T12:32:02.732Z,7.75
2022-10-31T12:34:46.139Z,7.95
2022-10-31T12:37:31.644Z,6.95
2022-10-31T12:40:17.159Z,10.40
2022-10-31T12:43:01.984Z,6.10
2022-10-31T12:45:54.084Z,8.45
2022-10-31T12:48:34.740Z,7.00
2022-10-31T12:51:12.409Z,6.65
2022-10-31T12:54:09.925Z,8.63
2022-10-31T12:56:55.152Z,11.65
2022-10-31T12:59:34.500Z,8.40
2022-10-31T13:02:20.769Z,8.75
2022-10-31T13:04:58.239Z,9.02
2022-10-31T13:07:56.429Z,7.93
2022-10-31T13:10:33.588Z,5.82
2022-10-31T13:13:06.202Z,7.57
2022-10-31T13:15:39.912Z,10.27
2022-10-31T13:18:14.020Z,4.30
2022-10-31T13:20:43.325Z,7.28
2022-10-31T13:23:23.889Z,7.13
2022-10-31T13:26:01.279Z,6.40
2022-10-31T13:31:21.580Z,5.75
2022-10-31T13:33:51.966Z,7.07
2022-10-31T13:36:41.343Z,9.55
2022-10-31T13:39:32.661Z,6.85
2022-10-31T13:42:40.998Z,7.93
2022-10-31T13:45:15.520Z,7.68
2022-10-31T13:47:43.147Z,6.28
2022-10-31T13:50:35.799Z,6.55
2022-10-31T13:53:21.287Z,5.57
2022-10-31T13:56:03.059Z,5.88
2022-10-31T13:58:31.037Z,7.05
2022-10-31T14:03:57.573Z,6.05
2022-10-31T14:06:17.691Z,5.15
2022-10-31T14:08:53.334Z,7.95
2022-10-31T14:11:25.547Z,8.18
2022-10-31T14:13:52.171Z,5.68
2022-10-31T14:16:19.748Z,9.00
2022-10-31T14:18:50.084Z,10.00
2022-10-31T14:21:25.704Z,7.68
2022-10-31T14:23:54.998Z,7.22
2022-10-31T14:26:28.019Z,5.35
2022-10-31T14:28:56.595Z,7.47
2022-10-31T14:31:36.726Z,7.55
2022-10-31T14:34:19.817Z,8.85
2022-10-31T14:37:23.759Z,5.65
2022-10-31T14:40:18.220Z,9.23
2022-10-31T14:43:18.794Z,12.00
2022-10-31T14:45:54.266Z,9.88
2022-10-31T14:48:29.827Z,9.35
2022-10-31T14:51:01.117Z,5.78
2022-10-31T14:53:30.343Z,8.57
2022-10-31T14:56:01.383Z,7.32
2022-10-31T14:58:42.079Z,7.78
2022-10-31T15:01:08.686Z,8.73
2022-10-31T15:03:48.374Z,8.02
2022-10-31T15:06:27.564Z,8.10
2022-10-31T15:08:55.717Z,6.78
2022-10-31T15:11:27.123Z,8.15
2022-10-31T15:13:55.928Z,6.88
2022-10-31T15:16:34.534Z,7.75
2022-10-31T15:19:05.359Z,6.13
2022-10-31T15:21:32.350Z,7.60
2022-10-31T15:24:00.499Z,11.00
2022-10-31T15:26:41.391Z,6.50
2022-10-31T15:31:52.584Z,9.27
2022-10-31T15:34:39.682Z,10.05
2022-10-31T15:39:35.272Z,6.85
2022-10-31T15:42:01.944Z,8.73
2022-10-31T15:44:37.180Z,14.23
2022-10-31T15:47:16.928Z,10.25
2022-10-31T15:49:57.651Z,7.03
2022-10-31T15:52:45.223Z,7.70
2022-10-31T15:55:23.167Z,9.40
2022-10-31T15:57:52.297Z,21.50
2022-10-31T16:00:39.237Z,9.90
2022-10-31T16:03:14.784Z,9.02
2022-10-31T16:05:51.027Z,9.55
2022-10-31T16:08:29.656Z,7.85
2022-10-31T16:10:57.664Z,7.90
2022-10-31T16:13:38.458Z,7.40
2022-10-31T16:19:00.774Z,6.57
2022-10-31T16:21:32.804Z,9.18
2022-10-31T16:24:06.506Z,8.13
2022-10-31T16:26:33.939Z,10.30
2022-10-31T16:29:05.617Z,7.45
2022-10-31T16:31:39.963Z,11.23
2022-10-31T16:34:16.434Z,9.40
2022-10-31T16:36:44.094Z,7.40
2022-10-31T16:39:10.651Z,9.98
2022-10-31T16:41:41.280Z,8.70
2022-10-31T16:44:17.045Z,8.43
2022-10-31T16:46:43.625Z,8.55
2022-10-31T16:49:10.838Z,10.52
2022-10-31T16:51:37.514Z,12.55
2022-10-31T16:54:04.095Z,14.60
2022-10-31T16:56:32.719Z,13.02
2022-10-31T16:59:04.708Z,12.75
2022-10-31T17:01:32.382Z,11.45
2022-10-31T17:03:59.049Z,11.45
2022-10-31T17:06:28.319Z,11.63
2022-10-31T17:08:55.298Z,9.32
2022-10-31T17:11:23.797Z,9.30
2022-10-31T17:13:50.411Z,10.02
2022-10-31T17:16:17.020Z,9.70
2022-10-31T17:18:47.431Z,11.30
2022-10-31T17:21:20.718Z,10.10
2022-10-31T17:23:47.278Z,9.82
2022-10-31T17:26:13.828Z,9.38
2022-10-31T17:28:40.378Z,15.93
2022-10-31T17:31:08.681Z,10.52
2022-10-31T17:36:03.596Z,10.07
2022-10-31T17:38:30.136Z,11.20
2022-10-31T17:40:56.651Z,10.95
2022-10-31T17:43:26.940Z,10.90
2022-10-31T17:45:53.443Z,13.10
2022-10-31T17:48:19.943Z,14.10
2022-10-31T17:50:46.444Z,8.13
2022-10-31T17:53:12.995Z,11.65
2022-10-31T17:55:39.511Z,10.45
2022-10-31T17:58:06.011Z,7.18
2022-10-31T18:00:32.896Z,10.07
2022-10-31T18:03:00.011Z,10.98
2022-10-31T18:05:26.865Z,9.57
2022-10-31T18:07:53.409Z,11.57
2022-10-31T18:10:19.959Z,8.88
2022-10-31T18:12:48.545Z,9.35
2022-10-31T18:15:16.293Z,9.73
2022-10-31T18:17:42.820Z,9.18
2022-10-31T18:20:10.272Z,13.73
2022-10-31T18:22:36.923Z,10.57
2022-10-31T18:25:04.399Z,9.55
2022-10-31T18:27:30.898Z,12.63
2022-10-31T18:29:57.450Z,10.65
2022-10-31T18:32:23.946Z,13.10
2022-10-31T18:34:50.438Z,10.32
2022-10-31T18:37:17.031Z,14.45
2022-10-31T18:39:43.544Z,9.35
2022-10-31T18:42:10.072Z,9.02
2022-10-31T18:44:36.612Z,13.25
2022-10-31T18:47:03.138Z,8.40
2022-10-31T18:49:32.626Z,10.75
2022-10-31T18:51:59.765Z,8.35
2022-10-31T18:54:26.425Z,11.32
2022-10-31T18:56:52.918Z,12.50
2022-10-31T18:59:19.395Z,10.63
2022-10-31T19:01:46.566Z,7.07
2022-10-31T19:04:13.373Z,9.00
2022-10-31T19:06:39.902Z,13.77
2022-10-31T19:09:09.331Z,14.98
2022-10-31T19:11:36.739Z,10.77
2022-10-31T19:14:04.229Z,10.70
2022-10-31T19:16:31.184Z,12.43
2022-10-31T19:18:59.956Z,12.63
2022-10-31T19:21:27.207Z,14.63
2022-10-31T19:23:56.123Z,12.50
2022-10-31T19:26:23.052Z,9.73
2022-10-31T19:28:49.544Z,14.63
2022-10-31T19:31:16.292Z,12.00
2022-10-31T19:33:42.776Z,14.95
2022-10-31T19:36:12.206Z,15.98
2022-10-31T19:38:40.630Z,15.00
2022-10-31T19:43:34.442Z,10.73
2022-10-31T19:46:03.553Z,12.38
2022-10-31T19:48:30.823Z,14.50
2022-10-31T19:51:06.203Z,9.52
2022-10-31T19:53:33.173Z,13.93
2022-10-31T19:56:00.030Z,13.13
2022-10-31T19:58:26.930Z,12.35
2022-10-31T20:00:54.042Z,11.15
2022-10-31T20:03:22.607Z,13.82
2022-10-31T20:05:50.560Z,12.57
2022-10-31T20:08:19.370Z,11.30
2022-10-31T20:10:56.855Z,11.10
2022-10-31T20:13:23.955Z,12.68
2022-10-31T20:15:50.996Z,12.02
2022-10-31T20:18:17.637Z,9.57
2022-10-31T20:20:44.428Z,10.38
2022-10-31T20:23:11.014Z,9.95
2022-10-31T20:25:37.812Z,10.77
2022-10-31T20:28:04.383Z,9.07
2022-10-31T20:30:31.124Z,12.63
2022-10-31T20:32:57.584Z,16.63
2022-10-31T20:35:24.073Z,14.30
2022-10-31T20:37:50.615Z,10.18
2022-10-31T20:40:17.145Z,9.07
2022-10-31T20:42:43.617Z,10.75
2022-10-31T20:45:10.436Z,10.57
2022-10-31T20:47:36.907Z,15.65
2022-10-31T20:50:05.307Z,10.57
2022-10-31T20:52:32.026Z,10.55
2022-10-31T20:54:58.523Z,16.38
2022-10-31T20:57:24.996Z,11.65
2022-10-31T20:59:51.505Z,11.32
2022-10-31T21:02:18.111Z,11.88
2022-10-31T21:04:44.665Z,13.50
2022-10-31T21:07:11.152Z,13.43
2022-10-31T21:09:37.813Z,18.20
2022-10-31T21:12:04.332Z,14.50
2022-10-31T21:14:30.831Z,12.43
2022-10-31T21:16:57.360Z,9.57
2022-10-31T21:19:23.890Z,14.18
2022-10-31T21:21:50.349Z,10.95
2022-10-31T21:24:20.437Z,11.73
2022-10-31T21:26:49.191Z,12.43
2022-10-31T21:29:16.404Z,8.30
2022-10-31T21:31:43.396Z,15.23
2022-10-31T21:34:10.580Z,12.10
2022-10-31T21:36:37.235Z,16.23
2022-10-31T21:39:05.032Z,11.25
2022-10-31T21:41:31.580Z,11.48
2022-10-31T21:43:58.531Z,10.50
2022-10-31T21:46:30.191Z,10.13
2022-10-31T21:48:56.943Z,7.28
2022-10-31T21:51:26.129Z,9.88
2022-10-31T21:54:11.492Z,8.50
2022-10-31T21:56:38.421Z,9.73
2022-10-31T21:59:05.481Z,12.52
2022-10-31T22:01:33.007Z,10.07
2022-10-31T22:03:59.855Z,10.23
2022-10-31T22:06:27.263Z,9.80
2022-10-31T22:08:54.471Z,9.52
2022-10-31T22:11:21.112Z,9.05
2022-10-31T22:13:49.262Z,10.50
2022-10-31T22:16:17.761Z,10.48
2022-10-31T22:21:12.870Z,8.15
2022-10-31T22:26:08.471Z,8.57
2022-10-31T22:28:35.655Z,11.20
2022-10-31T22:31:05.957Z,8.65
2022-10-31T22:33:33.084Z,12.07
2022-10-31T22:36:02.907Z,10.00
2022-10-31T22:38:40.035Z,9.18
2022-10-31T22:41:14.604Z,11.60
2022-10-31T22:43:41.394Z,12.82
2022-10-31T22:46:09.843Z,11.30
2022-10-31T22:48:39.699Z,10.15
2022-10-31T22:51:10.592Z,10.85
2022-10-31T22:53:37.731Z,9.32
2022-10-31T22:56:05.648Z,10.98
2022-10-31T22:58:33.060Z,10.25
2022-10-31T23:01:00.068Z,8.68
2022-10-31T23:03:26.730Z,8.98
2022-10-31T23:05:57.359Z,13.35
2022-10-31T23:08:24.604Z,10.23
2022-10-31T23:10:51.304Z,14.60
2022-10-31T23:13:36.100Z,8.00
2022-10-31T23:16:06.006Z,11.20
2022-10-31T23:18:49.655Z,12.30
2022-10-31T23:21:37.064Z,10.75
2022-10-31T23:24:03.687Z,10.30
2022-10-31T23:26:48.823Z,8.68
2022-10-31T23:29:15.293Z,8.63
2022-10-31T23:31:41.759Z,9.32
2022-10-31T23:34:08.260Z,9.80
2022-10-31T23:36:34.754Z,8.15
2022-10-31T23:39:01.215Z,11.98
2022-10-31T23:41:27.703Z,7.32
2022-10-31T23:43:54.184Z,9.32
2022-10-31T23:46:20.754Z,13.00
2022-10-31T23:48:50.690Z,8.88
2022-10-31T23:51:17.180Z,9.68
2022-10-31T23:53:45.336Z,12.82
2022-10-31T23:56:12.668Z,10.32
2022-10-31T23:58:39.364Z,8.10
